KDUJ/DUJ METAR and TAF weather

Enter ICAO airport designator
Station Type Date Time Source
KDUJ METAR 2020/09/20 13:53 UTC NOAA

KDUJ 201353Z AUTO 07008KT 10SM CLR 09/01 A3051 RMK AO2 SLP336 T00940006


Station Type Date Time Source
KDUJ Decoded METAR 2020/09/20 13:53 UTC NOAA

DU BOIS-JEFFERSON COUNTY, PA, United States (KDUJ) 41-11N 078-53W
Sep 20, 2020 - 09:53 AM EDT / 2020.09.20 1353 UTC
Wind: from the ENE (070 degrees) at 9 MPH (8 KT):0
Visibility: 10 mile(s):0
Sky conditions: clear
Temperature: 48.9 F (9.4 C)
Dew Point: 33.1 F (0.6 C)
Relative Humidity: 54%
Pressure (altimeter): 30.51 in. Hg (1033 hPa)
ob: KDUJ 201353Z AUTO 07008KT 10SM CLR 09/01 A3051 RMK AO2 SLP336 T00940006
cycle: 14

Station Type Date Time Source
KDUJ TAF 2020/09/20 12:33 UTC NOAA

TAF KDUJ 201129Z 2012/2112 07005KT P6SM SKC

Example: see airport list